Time;durP1;ratioP1;P1;durP2;ratioP2;P2;SDS_P1;SDS_P2;PMS_P1;PMS_P2;Temp;Humidity;BMP_temperature;BMP_pressure;BME280_temperature;BME280_humidity;BME280_pressure;Samples;Min_cycle;Max_cycle;Signal;HPM_P1;HPM_P2
2021/12/27 00:01:25;;;;;;;18.58;12.85;;;7.90;99.90;;;;;;5077194;28;20127;-63
2021/12/27 00:03:52;;;;;;;20.60;13.50;;;8.00;99.90;;;;;;5078004;28;20400;-64
2021/12/27 00:06:18;;;;;;;19.10;13.05;;;8.00;99.90;;;;;;5060685;28;20052;-62
2021/12/27 00:08:44;;;;;;;17.00;12.85;;;8.00;99.90;;;;;;5077392;28;20051;-63
2021/12/27 00:11:12;;;;;;;19.60;13.02;;;8.00;99.90;;;;;;5076835;28;20119;-63
2021/12/27 00:13:38;;;;;;;15.35;12.63;;;7.90;99.90;;;;;;5077559;28;20037;-63
2021/12/27 00:16:04;;;;;;;16.13;12.38;;;8.10;99.90;;;;;;5077592;28;20414;-63
2021/12/27 00:18:30;;;;;;;20.13;13.68;;;8.10;99.90;;;;;;5060369;28;20037;-63
2021/12/27 00:20:56;;;;;;;18.73;12.80;;;8.30;99.90;;;;;;5077604;28;20029;-62
2021/12/27 00:23:22;;;;;;;17.27;13.25;;;8.30;99.90;;;;;;5076787;28;20059;-61
2021/12/27 00:25:48;;;;;;;21.58;13.98;;;8.20;99.90;;;;;;5077439;28;20043;-62
2021/12/27 00:28:14;;;;;;;20.70;13.40;;;8.10;99.90;;;;;;5077980;28;20032;-62
2021/12/27 00:30:40;;;;;;;18.80;13.55;;;8.10;99.90;;;;;;5077688;28;20125;-65
2021/12/27 00:33:08;;;;;;;15.57;12.13;;;8.00;99.90;;;;;;5076675;28;20074;-63
2021/12/27 00:35:36;;;;;;;18.25;13.55;;;8.00;99.90;;;;;;5077090;28;20055;-63
2021/12/27 00:38:03;;;;;;;21.58;13.98;;;8.00;99.90;;;;;;5060086;28;20036;-63
2021/12/27 00:40:29;;;;;;;19.85;13.38;;;7.90;99.90;;;;;;5077168;28;20353;-63
2021/12/27 00:42:55;;;;;;;21.20;13.70;;;8.00;99.90;;;;;;5076684;28;20035;-63
2021/12/27 00:45:21;;;;;;;17.13;13.15;;;8.00;99.90;;;;;;5076976;28;20391;-63
2021/12/27 00:47:48;;;;;;;19.05;13.90;;;8.10;99.90;;;;;;5076986;28;20058;-63
2021/12/27 00:50:15;;;;;;;18.25;13.98;;;8.30;99.90;;;;;;5076986;28;20031;-63
2021/12/27 00:52:40;;;;;;;21.00;13.32;;;8.50;99.90;;;;;;5076888;28;20059;-62
2021/12/27 00:55:09;;;;;;;18.77;13.90;;;8.40;99.90;;;;;;5076088;28;20039;-62
2021/12/27 00:57:36;;;;;;;19.40;13.68;;;8.40;99.90;;;;;;5076835;28;20031;-62
2021/12/27 01:00:04;;;;;;;17.77;12.60;;;8.30;99.90;;;;;;5076159;28;20052;-62
2021/12/27 01:02:30;;;;;;;16.85;12.77;;;8.30;99.90;;;;;;5077238;28;20054;-62
2021/12/27 01:04:56;;;;;;;20.27;13.68;;;8.20;99.90;;;;;;5077196;28;20061;-62
2021/12/27 01:07:22;;;;;;;21.17;13.63;;;8.10;99.90;;;;;;5076760;28;20116;-62
2021/12/27 01:12:34;;;;;;;20.33;13.73;;;8.20;99.90;;;;;;5075931;28;20407;-62
2021/12/27 01:15:34;;;;;;;18.60;12.98;;;8.30;99.90;;;;;;5077107;28;20051;-62
2021/12/27 01:17:54;;;;;;;20.08;13.50;;;8.50;99.90;;;;;;5075624;28;20407;-62
2021/12/27 01:20:22;;;;;;;18.73;13.13;;;8.50;99.90;;;;;;5075968;28;20059;-63
2021/12/27 01:22:49;;;;;;;18.88;13.38;;;8.40;99.90;;;;;;5076613;28;20052;-63
2021/12/27 01:25:15;;;;;;;21.75;12.85;;;8.40;99.90;;;;;;5079305;28;20058;-63
2021/12/27 01:27:43;;;;;;;22.05;13.88;;;8.20;99.90;;;;;;5080708;28;20131;-61
2021/12/27 01:30:11;;;;;;;19.63;13.05;;;8.20;99.90;;;;;;5080706;28;20048;-61
2021/12/27 01:32:45;;;;;;;22.33;13.63;;;8.30;99.90;;;;;;5079808;28;20040;-62
2021/12/27 01:35:11;;;;;;;20.85;13.90;;;8.20;99.90;;;;;;5080767;28;20052;-62
2021/12/27 01:37:38;;;;;;;23.67;14.27;;;8.10;99.90;;;;;;5080972;28;20078;-62
2021/12/27 01:40:05;;;;;;;20.17;13.80;;;8.00;99.90;;;;;;5080529;28;20388;-62
2021/12/27 01:42:30;;;;;;;21.75;13.30;;;8.00;99.90;;;;;;5080400;28;20024;-64
2021/12/27 01:44:57;;;;;;;20.30;14.45;;;8.00;99.90;;;;;;5080733;28;20411;-62
2021/12/27 01:47:22;;;;;;;23.00;15.05;;;8.00;99.90;;;;;;5080290;28;20041;-64
2021/12/27 01:49:48;;;;;;;21.95;14.40;;;8.10;99.90;;;;;;5080357;28;20415;-62
2021/12/27 01:52:14;;;;;;;23.85;15.20;;;8.10;99.90;;;;;;5079467;28;20028;-62
2021/12/27 01:54:40;;;;;;;23.35;13.95;;;8.20;99.90;;;;;;5080662;28;20034;-62
2021/12/27 01:57:06;;;;;;;21.70;14.52;;;8.30;99.90;;;;;;5080639;28;20025;-62
2021/12/27 01:59:34;;;;;;;23.05;15.25;;;8.30;99.90;;;;;;5080635;28;20054;-63
2021/12/27 02:02:00;;;;;;;20.45;13.95;;;8.30;99.90;;;;;;5080332;28;20299;-61
2021/12/27 02:04:25;;;;;;;22.55;14.93;;;8.20;99.90;;;;;;5080052;28;20089;-62
2021/12/27 02:06:51;;;;;;;22.30;13.60;;;8.10;99.90;;;;;;5080011;28;20399;-62
2021/12/27 02:09:27;;;;;;;21.17;14.18;;;8.10;99.90;;;;;;5079962;28;20419;-62
2021/12/27 02:11:53;;;;;;;22.67;14.95;;;8.10;99.90;;;;;;5079093;28;20350;-62
2021/12/27 02:14:18;;;;;;;25.48;14.95;;;8.20;99.90;;;;;;5079844;28;20025;-62
2021/12/27 02:16:44;;;;;;;23.60;14.48;;;8.20;99.90;;;;;;5080362;28;20044;-62
2021/12/27 02:19:10;;;;;;;23.92;14.60;;;8.10;99.90;;;;;;5079900;28;20044;-63
2021/12/27 02:21:36;;;;;;;24.65;15.07;;;8.10;99.90;;;;;;5079883;28;20060;-63
2021/12/27 02:24:03;;;;;;;22.48;14.88;;;8.20;99.90;;;;;;5079837;28;20391;-64
2021/12/27 02:26:29;;;;;;;23.35;14.98;;;8.30;99.90;;;;;;5079803;28;20103;-63
2021/12/27 02:28:55;;;;;;;24.15;15.27;;;8.30;99.90;;;;;;5062356;28;20116;-62
2021/12/27 02:31:21;;;;;;;22.35;14.10;;;8.30;99.90;;;;;;5079709;28;20048;-63
2021/12/27 02:33:47;;;;;;;25.48;15.82;;;8.40;99.90;;;;;;5079567;28;20028;-62
2021/12/27 02:36:13;;;;;;;26.98;16.20;;;8.50;99.90;;;;;;5079056;28;20056;-62
2021/12/27 02:38:42;;;;;;;23.08;15.35;;;8.60;99.90;;;;;;5078767;28;20074;-63
2021/12/27 02:41:09;;;;;;;26.02;15.93;;;8.70;99.90;;;;;;5079498;28;20353;-61
2021/12/27 02:43:38;;;;;;;24.48;15.63;;;8.70;99.90;;;;;;5078747;28;20169;-62
2021/12/27 02:46:06;;;;;;;23.92;16.00;;;8.70;99.90;;;;;;5078654;28;20041;-62
2021/12/27 02:48:40;;;;;;;24.33;14.77;;;8.60;99.90;;;;;;5079662;28;20406;-62
2021/12/27 02:51:07;;;;;;;25.20;15.20;;;8.50;99.90;;;;;;5079384;28;20044;-62
2021/12/27 02:53:33;;;;;;;25.75;15.40;;;8.50;99.90;;;;;;5079206;28;20120;-62
2021/12/27 02:56:00;;;;;;;25.55;15.55;;;8.50;99.90;;;;;;5078601;28;20024;-61
2021/12/27 02:58:27;;;;;;;22.67;14.85;;;8.40;99.90;;;;;;5079170;28;20032;-61
2021/12/27 03:00:58;;;;;;;24.35;15.07;;;8.30;99.90;;;;;;5079100;28;20071;-61
2021/12/27 03:03:24;;;;;;;22.88;14.30;;;8.30;99.90;;;;;;5079077;28;20038;-62
2021/12/27 03:05:50;;;;;;;22.85;14.88;;;8.50;99.90;;;;;;5079083;28;20029;-62
2021/12/27 03:08:18;;;;;;;24.13;15.02;;;8.60;99.90;;;;;;5078173;28;20090;-62
2021/12/27 03:10:49;;;;;;;26.58;16.40;;;8.70;99.90;;;;;;5078994;28;20024;-62
2021/12/27 03:13:36;;;;;;;27.27;15.93;;;8.70;99.90;;;;;;5078833;28;20028;-62
2021/12/27 03:16:02;;;;;;;27.90;17.23;;;8.60;99.90;;;;;;5078942;28;20020;-63
2021/12/27 03:18:28;;;;;;;25.15;15.52;;;8.40;99.90;;;;;;5078798;28;20027;-62
2021/12/27 03:20:55;;;;;;;26.05;16.75;;;8.40;99.90;;;;;;5079087;28;20288;-63
2021/12/27 03:23:21;;;;;;;29.27;16.92;;;8.50;99.90;;;;;;5078855;28;20059;-63
2021/12/27 03:25:47;;;;;;;32.05;17.60;;;8.50;99.90;;;;;;5078698;28;20299;-63
2021/12/27 03:28:14;;;;;;;27.63;17.17;;;8.50;99.90;;;;;;5078580;28;20060;-63
2021/12/27 03:30:39;;;;;;;34.97;18.35;;;8.50;99.90;;;;;;5078568;28;20354;-63
2021/12/27 03:33:07;;;;;;;30.48;17.05;;;8.50;99.90;;;;;;5078720;28;20036;-63
2021/12/27 03:35:38;;;;;;;28.90;17.08;;;8.60;99.90;;;;;;5078225;28;20048;-63
2021/12/27 03:38:09;;;;;;;31.27;18.35;;;8.80;99.90;;;;;;5078409;28;20089;-63
2021/12/27 03:40:36;;;;;;;29.33;17.50;;;8.90;99.90;;;;;;5078670;28;20036;-63
2021/12/27 03:43:02;;;;;;;27.13;16.70;;;9.10;99.90;;;;;;5078342;28;20028;-64
2021/12/27 03:45:35;;;;;;;28.30;17.63;;;9.20;99.90;;;;;;5078477;28;20028;-63
2021/12/27 03:48:02;;;;;;;25.60;16.08;;;9.20;99.90;;;;;;5077853;28;20303;-63
2021/12/27 03:50:28;;;;;;;29.13;16.90;;;9.30;99.90;;;;;;5078199;28;20032;-63
2021/12/27 03:52:58;;;;;;;29.38;17.02;;;9.30;99.90;;;;;;5078060;28;20486;-63
2021/12/27 03:55:25;;;;;;;28.35;16.65;;;9.30;99.90;;;;;;5078083;28;20025;-63
2021/12/27 03:57:53;;;;;;;32.90;17.10;;;9.30;99.90;;;;;;5077971;28;20036;-63
2021/12/27 04:02:54;;;;;;;26.85;17.27;;;9.40;99.90;;;;;;5078324;28;20386;-62
2021/12/27 04:05:21;;;;;;;31.67;18.15;;;9.30;99.90;;;;;;5077764;28;20464;-63
2021/12/27 04:07:56;;;;;;;29.10;17.80;;;9.40;99.90;;;;;;5078248;28;20296;-63
2021/12/27 04:10:22;;;;;;;32.45;17.90;;;9.40;99.90;;;;;;5077287;28;20033;-62
2021/12/27 04:12:48;;;;;;;30.13;17.67;;;9.40;99.90;;;;;;5077665;28;20032;-62
2021/12/27 04:15:14;;;;;;;33.28;17.95;;;9.40;99.90;;;;;;5077681;28;20021;-63
2021/12/27 04:17:40;;;;;;;26.60;17.45;;;9.40;99.90;;;;;;5077613;28;20044;-62
2021/12/27 04:20:07;;;;;;;29.13;17.67;;;9.30;99.90;;;;;;5077569;28;20300;-62
2021/12/27 04:22:33;;;;;;;30.67;17.38;;;9.30;99.90;;;;;;5077527;28;20040;-62
2021/12/27 04:25:00;;;;;;;26.88;17.10;;;9.30;99.90;;;;;;5077912;28;20131;-61
2021/12/27 04:27:27;;;;;;;28.27;17.25;;;9.30;99.90;;;;;;5077426;28;20101;-62
2021/12/27 04:29:53;;;;;;;33.03;19.63;;;9.30;99.90;;;;;;5077017;28;20064;-63
2021/12/27 04:32:19;;;;;;;35.75;20.55;;;9.30;99.90;;;;;;5077250;28;20025;-62
2021/12/27 04:34:45;;;;;;;31.48;17.75;;;9.40;99.90;;;;;;5077115;28;20045;-63
2021/12/27 04:37:11;;;;;;;28.70;17.20;;;9.40;99.90;;;;;;5077637;28;20419;-62
2021/12/27 04:39:37;;;;;;;29.42;17.10;;;9.40;99.90;;;;;;5076544;28;20036;-63
2021/12/27 04:42:04;;;;;;;28.38;16.35;;;9.40;99.90;;;;;;5077476;28;20400;-63
2021/12/27 04:44:30;;;;;;;28.05;16.20;;;9.30;99.90;;;;;;5076450;28;20296;-62
2021/12/27 04:46:56;;;;;;;27.10;16.08;;;9.20;99.90;;;;;;5077154;28;20037;-62
2021/12/27 04:49:22;;;;;;;30.33;16.85;;;9.00;99.90;;;;;;5077477;28;20029;-62
2021/12/27 04:51:48;;;;;;;32.35;17.52;;;9.00;99.90;;;;;;5077023;28;20350;-62
2021/12/27 04:54:14;;;;;;;29.58;16.98;;;9.00;99.90;;;;;;5077041;28;20111;-63
2021/12/27 04:56:40;;;;;;;33.13;18.40;;;8.80;99.90;;;;;;5077080;28;20059;-63
2021/12/27 04:59:06;;;;;;;33.88;17.65;;;8.60;99.90;;;;;;5076234;28;20028;-62
2021/12/27 05:01:32;;;;;;;37.85;18.17;;;8.40;99.90;;;;;;5076974;28;20028;-63
2021/12/27 05:03:58;;;;;;;36.45;18.40;;;8.30;99.90;;;;;;5077190;28;20036;-63
2021/12/27 05:06:23;;;;;;;33.85;17.98;;;8.40;99.90;;;;;;5077082;28;20037;-62
2021/12/27 05:08:50;;;;;;;33.42;17.85;;;8.40;99.90;;;;;;5076880;28;20358;-63
2021/12/27 05:11:16;;;;;;;36.10;17.73;;;8.30;99.90;;;;;;5076858;28;20036;-62
2021/12/27 05:13:42;;;;;;;34.92;18.02;;;8.30;99.90;;;;;;5076776;28;20145;-63
2021/12/27 05:16:08;;;;;;;32.70;17.67;;;8.20;99.90;;;;;;5076903;28;20412;-63
2021/12/27 05:18:34;;;;;;;33.65;17.65;;;8.10;99.90;;;;;;5076073;28;20392;-65
2021/12/27 05:21:00;;;;;;;38.65;18.67;;;8.10;99.90;;;;;;5076816;28;20055;-63
2021/12/27 05:23:25;;;;;;;37.45;19.05;;;8.10;99.90;;;;;;5076734;28;20048;-66
2021/12/27 05:25:51;;;;;;;38.63;18.35;;;8.10;99.90;;;;;;5076677;28;20024;-64
2021/12/27 05:28:17;;;;;;;36.85;18.23;;;8.20;99.90;;;;;;5076650;28;20032;-64
2021/12/27 05:30:48;;;;;;;39.75;18.85;;;8.40;99.90;;;;;;5076917;28;20452;-64
2021/12/27 05:33:15;;;;;;;40.75;18.83;;;8.40;99.90;;;;;;5076505;28;20033;-64
2021/12/27 05:35:42;;;;;;;38.03;18.00;;;8.50;99.90;;;;;;5076437;28;20331;-64
2021/12/27 05:38:08;;;;;;;37.00;18.00;;;8.40;99.90;;;;;;5075848;28;20067;-64
2021/12/27 05:40:34;;;;;;;37.30;18.08;;;8.30;99.90;;;;;;5076535;28;20107;-65
2021/12/27 05:43:00;;;;;;;35.45;18.23;;;8.20;99.90;;;;;;5076506;28;20032;-64
2021/12/27 05:45:26;;;;;;;32.50;16.67;;;8.20;99.90;;;;;;5076614;28;20430;-64
2021/12/27 05:47:52;;;;;;;36.17;17.27;;;8.20;99.90;;;;;;5076890;28;20288;-64
2021/12/27 05:50:18;;;;;;;37.10;16.75;;;8.20;99.90;;;;;;5075726;28;20124;-64
2021/12/27 05:52:44;;;;;;;38.20;18.25;;;8.20;99.90;;;;;;5076367;28;20366;-64
2021/12/27 05:55:11;;;;;;;39.05;17.45;;;8.20;99.90;;;;;;5076762;28;20404;-64
2021/12/27 05:57:38;;;;;;;35.97;17.73;;;8.20;99.90;;;;;;5076668;28;20395;-63
2021/12/27 06:00:06;;;;;;;33.20;17.45;;;8.20;99.90;;;;;;5076359;28;20086;-63
2021/12/27 06:02:40;;;;;;;33.08;16.63;;;8.40;99.90;;;;;;5076348;28;20370;-64
2021/12/27 06:05:06;;;;;;;29.00;16.00;;;8.40;99.90;;;;;;5076305;28;20111;-64
2021/12/27 06:07:32;;;;;;;33.22;16.38;;;8.40;99.90;;;;;;5075541;28;20021;-64
2021/12/27 06:09:58;;;;;;;28.45;14.68;;;8.40;99.90;;;;;;5077466;28;20090;-64
2021/12/27 06:12:24;;;;;;;28.45;14.93;;;8.40;99.90;;;;;;5079899;28;20036;-63
2021/12/27 06:14:50;;;;;;;27.73;13.98;;;8.40;99.90;;;;;;5080063;28;20086;-64
2021/12/27 06:17:16;;;;;;;28.05;14.00;;;8.40;99.90;;;;;;5079291;28;20033;-63
2021/12/27 06:19:42;;;;;;;25.00;13.50;;;8.40;99.90;;;;;;5079231;28;20032;-63
2021/12/27 06:22:08;;;;;;;26.17;13.73;;;8.30;99.90;;;;;;5079733;28;20024;-63
2021/12/27 06:24:34;;;;;;;26.92;14.25;;;8.30;99.90;;;;;;5079072;28;20093;-63
2021/12/27 06:27:00;;;;;;;22.45;12.85;;;8.30;99.90;;;;;;5079740;28;20029;-62
2021/12/27 06:29:25;;;;;;;26.85;14.50;;;8.30;99.90;;;;;;5079772;28;20296;-63
2021/12/27 06:31:51;;;;;;;21.90;13.07;;;8.30;99.90;;;;;;5079548;28;20041;-63
2021/12/27 06:34:17;;;;;;;23.10;13.48;;;8.40;99.90;;;;;;5079718;28;20028;-63
2021/12/27 06:36:43;;;;;;;21.05;13.27;;;8.50;99.90;;;;;;5079350;28;20102;-64
2021/12/27 06:39:09;;;;;;;25.60;13.68;;;8.40;99.90;;;;;;5078814;28;20101;-64
2021/12/27 06:41:35;;;;;;;21.30;13.38;;;8.40;99.90;;;;;;5079517;28;20033;-63
2021/12/27 06:44:01;;;;;;;24.02;13.45;;;8.40;99.90;;;;;;5079435;28;20101;-64
2021/12/27 06:46:27;;;;;;;24.60;14.15;;;8.50;99.90;;;;;;5079378;28;20127;-63
2021/12/27 06:48:55;;;;;;;26.35;13.90;;;8.60;99.90;;;;;;5079403;28;20062;-63
2021/12/27 06:51:21;;;;;;;23.33;13.25;;;8.60;99.90;;;;;;5079328;28;20028;-63
2021/12/27 06:53:47;;;;;;;22.77;14.13;;;8.60;99.90;;;;;;5079231;28;20029;-64
2021/12/27 06:56:12;;;;;;;20.77;12.05;;;8.60;99.90;;;;;;5079275;28;20036;-63
2021/12/27 06:58:38;;;;;;;20.67;12.40;;;8.50;99.90;;;;;;5079160;28;20097;-64
2021/12/27 07:01:05;;;;;;;22.27;13.02;;;8.60;99.90;;;;;;5079454;28;20311;-64
2021/12/27 07:03:31;;;;;;;20.88;11.50;;;8.80;99.90;;;;;;5079135;28;20408;-64
2021/12/27 07:05:58;;;;;;;19.27;11.93;;;8.90;99.90;;;;;;5078227;28;20048;-64
2021/12/27 07:08:23;;;;;;;20.85;12.60;;;9.10;99.90;;;;;;5078876;28;20043;-63
2021/12/27 07:10:50;;;;;;;21.45;12.25;;;9.30;99.90;;;;;;5078904;28;20395;-64
2021/12/27 07:13:16;;;;;;;24.60;12.43;;;9.30;99.90;;;;;;5078842;28;20123;-64
2021/12/27 07:15:42;;;;;;;18.73;11.93;;;9.30;99.90;;;;;;5079281;28;20017;-64
2021/12/27 07:18:09;;;;;;;19.10;11.43;;;9.20;99.90;;;;;;5078803;28;20036;-64
2021/12/27 07:20:36;;;;;;;22.75;11.95;;;9.10;99.90;;;;;;5078946;28;20415;-63
2021/12/27 07:23:03;;;;;;;18.90;11.85;;;8.90;99.90;;;;;;5077859;28;20064;-63
2021/12/27 07:25:29;;;;;;;19.42;11.43;;;8.70;99.90;;;;;;5078784;28;20409;-63
2021/12/27 07:27:55;;;;;;;22.63;12.27;;;8.60;99.90;;;;;;5077721;28;20395;-64
2021/12/27 07:30:21;;;;;;;25.27;13.65;;;8.50;99.90;;;;;;5079145;28;20037;-64
2021/12/27 07:32:46;;;;;;;24.85;13.48;;;8.40;99.90;;;;;;5078446;28;20036;-64
2021/12/27 07:35:13;;;;;;;23.85;13.23;;;8.40;99.90;;;;;;5078309;28;20148;-64
2021/12/27 07:37:40;;;;;;;25.75;13.60;;;8.30;99.90;;;;;;5078552;28;20109;-63
2021/12/27 07:40:07;;;;;;;31.73;15.15;;;8.20;99.90;;;;;;5078330;28;20082;-63
2021/12/27 07:42:32;;;;;;;33.42;16.60;;;8.10;99.90;;;;;;5078401;28;20116;-63
2021/12/27 07:44:58;;;;;;;30.92;15.65;;;8.20;99.90;;;;;;5078120;28;20060;-64
2021/12/27 07:47:24;;;;;;;32.45;15.43;;;8.30;99.90;;;;;;5078084;28;20410;-63
2021/12/27 07:49:51;;;;;;;29.13;14.98;;;8.40;99.90;;;;;;5077687;28;20056;-63
2021/12/27 07:52:17;;;;;;;27.73;14.20;;;8.40;99.90;;;;;;5077888;28;20033;-64
2021/12/27 07:54:43;;;;;;;27.63;14.60;;;8.40;99.90;;;;;;5077950;28;20124;-63
2021/12/27 07:57:11;;;;;;;28.48;14.60;;;8.40;99.90;;;;;;5077760;28;20054;-63
2021/12/27 07:59:37;;;;;;;29.50;13.77;;;8.40;99.90;;;;;;5078363;28;20131;-63
2021/12/27 08:02:03;;;;;;;31.48;14.73;;;8.40;99.90;;;;;;5060353;28;20032;-64
2021/12/27 08:04:29;;;;;;;32.42;15.45;;;8.30;99.90;;;;;;5077865;28;20036;-63
2021/12/27 08:06:55;;;;;;;27.80;14.93;;;8.30;99.90;;;;;;5077702;28;20016;-63
2021/12/27 08:09:24;;;;;;;28.75;15.13;;;8.30;99.90;;;;;;5078297;28;20024;-63
2021/12/27 08:11:50;;;;;;;29.27;15.48;;;8.40;99.90;;;;;;5076851;28;20029;-63
2021/12/27 08:14:15;;;;;;;30.02;14.40;;;8.50;99.90;;;;;;5076633;28;20051;-63
2021/12/27 08:16:41;;;;;;;30.50;14.73;;;8.60;99.90;;;;;;5077458;28;20413;-63
2021/12/27 08:19:07;;;;;;;27.13;14.43;;;8.70;99.90;;;;;;5077495;28;20021;-63
2021/12/27 08:21:33;;;;;;;27.58;14.48;;;8.80;99.90;;;;;;5077305;28;20025;-63
2021/12/27 08:23:59;;;;;;;29.08;15.60;;;8.90;99.90;;;;;;5077378;28;20150;-63
2021/12/27 08:26:25;;;;;;;27.33;13.85;;;8.90;99.90;;;;;;5076797;28;20407;-62
2021/12/27 08:28:53;;;;;;;25.55;13.85;;;9.10;99.90;;;;;;5077212;28;20051;-63
2021/12/27 08:31:19;;;;;;;26.95;14.32;;;9.10;99.90;;;;;;5076670;28;20036;-63
2021/12/27 08:33:45;;;;;;;31.88;15.13;;;9.20;99.90;;;;;;5076922;28;20037;-64
2021/12/27 08:36:11;;;;;;;25.48;14.20;;;9.10;99.90;;;;;;5077136;28;20347;-64
2021/12/27 08:38:37;;;;;;;26.05;13.57;;;9.10;99.90;;;;;;5076425;28;20039;-62
2021/12/27 08:41:03;;;;;;;21.40;13.13;;;9.10;99.90;;;;;;5076584;28;20024;-62
2021/12/27 08:43:29;;;;;;;22.67;13.50;;;9.10;99.90;;;;;;5076915;28;20071;-61
2021/12/27 08:45:56;;;;;;;21.77;12.60;;;9.30;99.90;;;;;;5076430;28;20472;-61
2021/12/27 08:48:22;;;;;;;25.20;12.35;;;9.20;99.90;;;;;;5077080;28;20041;-61
2021/12/27 08:50:48;;;;;;;24.75;14.45;;;9.10;99.90;;;;;;5077451;28;20032;-62
2021/12/27 08:53:14;;;;;;;21.13;12.77;;;9.10;99.90;;;;;;5076948;28;20032;-62
2021/12/27 08:55:40;;;;;;;20.55;12.43;;;9.00;99.90;;;;;;5076934;28;20028;-62
2021/12/27 08:58:06;;;;;;;26.98;14.10;;;9.00;99.90;;;;;;5076931;28;20077;-61
2021/12/27 09:00:33;;;;;;;23.08;13.35;;;9.10;99.90;;;;;;5076946;28;20033;-61
2021/12/27 09:02:58;;;;;;;17.00;12.18;;;9.20;99.90;;;;;;5077225;28;20052;-61
2021/12/27 09:05:25;;;;;;;20.45;12.65;;;9.20;99.90;;;;;;5076855;28;20032;-61
2021/12/27 09:07:50;;;;;;;18.02;11.75;;;9.20;99.90;;;;;;5076064;28;20039;-62
2021/12/27 09:10:16;;;;;;;17.85;12.30;;;9.30;99.90;;;;;;5077336;28;20089;-62
2021/12/27 09:12:42;;;;;;;17.40;11.65;;;9.30;99.90;;;;;;5077090;28;20407;-62
2021/12/27 09:15:09;;;;;;;19.88;11.32;;;9.40;99.90;;;;;;5059533;28;20107;-62
2021/12/27 09:17:35;;;;;;;14.35;10.07;;;9.40;99.90;;;;;;5076680;28;20033;-62
2021/12/27 09:20:03;;;;;;;15.55;10.80;;;9.50;99.90;;;;;;5076297;28;20043;-62
2021/12/27 09:22:29;;;;;;;16.52;10.25;;;9.40;99.90;;;;;;5076729;28;20284;-62
2021/12/27 09:24:54;;;;;;;15.45;10.77;;;9.30;99.90;;;;;;5076750;28;20101;-62
2021/12/27 09:27:20;;;;;;;14.98;10.10;;;9.50;99.90;;;;;;5075936;28;20043;-61
2021/12/27 09:29:46;;;;;;;16.73;10.40;;;9.50;99.90;;;;;;5075869;28;20102;-61
2021/12/27 09:32:13;;;;;;;16.55;10.20;;;9.50;99.90;;;;;;5076378;28;20028;-62
2021/12/27 09:34:39;;;;;;;14.52;10.02;;;9.50;99.90;;;;;;5076546;28;20131;-62
2021/12/27 09:37:06;;;;;;;16.00;9.68;;;9.60;99.90;;;;;;5076818;28;20029;-61
2021/12/27 09:39:32;;;;;;;16.73;10.10;;;9.60;99.90;;;;;;5076719;28;20304;-62
2021/12/27 09:41:58;;;;;;;13.77;10.10;;;9.60;99.90;;;;;;5076522;28;20052;-62
2021/12/27 09:44:24;;;;;;;12.77;9.30;;;9.70;99.90;;;;;;5076678;28;20035;-61
2021/12/27 09:46:50;;;;;;;13.82;9.10;;;9.60;99.90;;;;;;5081028;28;20025;-61
2021/12/27 09:49:17;;;;;;;15.30;10.32;;;9.60;99.90;;;;;;5080459;28;20044;-62
2021/12/27 09:51:45;;;;;;;12.05;9.07;;;9.70;99.90;;;;;;5080650;28;20111;-61
2021/12/27 09:54:11;;;;;;;12.35;8.90;;;9.60;99.90;;;;;;5080335;28;20047;-61
2021/12/27 09:56:37;;;;;;;12.48;8.90;;;9.60;99.90;;;;;;5080376;28;20029;-61
2021/12/27 09:59:04;;;;;;;12.55;8.93;;;9.60;99.90;;;;;;5080151;28;20112;-61
2021/12/27 10:01:30;;;;;;;11.85;9.07;;;9.60;99.90;;;;;;5080221;28;20133;-61
2021/12/27 10:03:58;;;;;;;11.93;8.20;;;9.70;99.90;;;;;;5080116;28;20037;-61
2021/12/27 10:06:27;;;;;;;12.05;8.27;;;9.80;99.90;;;;;;5080096;28;20043;-62
2021/12/27 10:08:58;;;;;;;11.23;8.07;;;10.00;99.90;;;;;;5080170;28;20366;-61
2021/12/27 10:11:27;;;;;;;12.02;8.02;;;10.00;99.90;;;;;;5079417;28;20093;-62
2021/12/27 10:13:58;;;;;;;12.75;8.05;;;9.80;99.90;;;;;;5079926;28;20108;-62
2021/12/27 10:16:25;;;;;;;10.32;7.45;;;9.90;99.90;;;;;;5080489;28;20036;-63
2021/12/27 10:18:59;;;;;;;10.13;7.80;;;9.90;99.90;;;;;;5079914;28;20033;-63
2021/12/27 10:21:25;;;;;;;10.07;7.10;;;10.10;99.90;;;;;;5079887;28;20311;-63
2021/12/27 10:24:28;;;;;;;11.45;7.82;;;10.20;99.90;;;;;;5079791;28;20028;-64
2021/12/27 10:27:04;;;;;;;12.10;7.97;;;10.30;99.90;;;;;;5038613;28;20069;-63
2021/12/27 10:29:39;;;;;;;10.15;7.30;;;10.40;99.90;;;;;;5074961;28;20044;-63
2021/12/27 10:32:16;;;;;;;8.95;6.85;;;10.40;99.90;;;;;;5079424;28;20056;-62
2021/12/27 10:34:50;;;;;;;9.48;6.78;;;10.50;99.90;;;;;;5079300;28;20060;-62
2021/12/27 10:37:27;;;;;;;7.80;6.80;;;10.70;99.90;;;;;;5079532;28;20032;-63
2021/12/27 10:39:53;;;;;;;9.27;6.85;;;11.00;99.90;;;;;;5080064;28;20090;-62
2021/12/27 10:42:26;;;;;;;10.88;6.95;;;11.10;99.90;;;;;;5079641;28;20028;-62
2021/12/27 10:44:55;;;;;;;9.88;7.43;;;11.10;99.90;;;;;;5078733;28;20028;-62
2021/12/27 10:47:27;;;;;;;13.18;7.60;;;11.10;99.90;;;;;;5079370;28;20025;-62
2021/12/27 10:49:53;;;;;;;9.33;6.47;;;11.30;99.90;;;;;;5079369;28;20037;-63
2021/12/27 10:52:20;;;;;;;7.10;5.82;;;11.40;99.90;;;;;;5079216;28;20431;-63
2021/12/27 10:54:45;;;;;;;7.05;5.80;;;11.30;99.90;;;;;;5078666;28;20028;-63
2021/12/27 10:57:12;;;;;;;7.32;5.63;;;11.40;99.90;;;;;;5078405;28;20028;-63
2021/12/27 10:59:38;;;;;;;6.28;5.45;;;11.40;99.90;;;;;;5078501;28;20098;-63
2021/12/27 11:02:13;;;;;;;7.07;5.70;;;11.40;99.90;;;;;;5079149;28;20032;-62
2021/12/27 11:04:40;;;;;;;6.47;5.75;;;11.50;99.90;;;;;;5079175;28;20038;-62
2021/12/27 11:07:06;;;;;;;6.97;5.45;;;11.50;99.90;;;;;;5078305;28;20013;-62
2021/12/27 11:09:33;;;;;;;7.85;6.38;;;11.50;99.90;;;;;;5078985;28;20043;-61
2021/12/27 11:12:01;;;;;;;6.20;5.57;;;11.40;99.90;;;;;;5079407;28;20033;-61
2021/12/27 11:14:27;;;;;;;9.70;6.20;;;11.50;99.90;;;;;;5078963;28;20400;-60
2021/12/27 11:16:54;;;;;;;9.63;6.10;;;11.50;99.90;;;;;;5078907;28;20043;-63
2021/12/27 11:19:20;;;;;;;7.13;6.07;;;11.40;99.90;;;;;;5078127;28;20029;-60
2021/12/27 11:21:48;;;;;;;7.68;5.78;;;11.30;99.90;;;;;;5078840;28;20020;-61
2021/12/27 11:24:14;;;;;;;8.00;5.38;;;11.40;99.90;;;;;;5077893;28;20046;-62
2021/12/27 11:26:42;;;;;;;8.55;5.57;;;11.40;99.90;;;;;;5078704;28;20036;-63
2021/12/27 11:29:13;;;;;;;6.18;5.07;;;11.30;99.90;;;;;;5078599;28;20032;-62
2021/12/27 11:31:40;;;;;;;6.20;5.03;;;11.30;99.90;;;;;;5078529;28;20111;-61
2021/12/27 11:34:08;;;;;;;7.95;5.35;;;11.20;99.90;;;;;;5078512;28;20115;-62
2021/12/27 11:36:38;;;;;;;7.10;5.47;;;11.20;99.90;;;;;;5078184;28;20049;-62
2021/12/27 11:39:38;;;;;;;5.40;4.90;;;11.10;99.90;;;;;;5077669;28;20025;-62
2021/12/27 11:42:12;;;;;;;7.32;5.18;;;11.10;99.90;;;;;;5046268;28;20037;-62
2021/12/27 11:44:58;;;;;;;5.97;4.43;;;10.90;99.90;;;;;;5078332;28;20028;-62
2021/12/27 11:47:29;;;;;;;6.82;4.50;;;11.00;99.90;;;;;;5078241;28;20029;-62
2021/12/27 11:49:59;;;;;;;6.60;5.28;;;11.10;99.90;;;;;;5078249;28;20297;-62
2021/12/27 11:52:28;;;;;;;7.40;5.10;;;11.10;99.90;;;;;;5078031;28;20040;-63
2021/12/27 11:55:10;;;;;;;5.25;4.55;;;11.10;99.90;;;;;;5078028;28;20025;-63
2021/12/27 11:57:45;;;;;;;5.38;4.60;;;11.10;99.90;;;;;;5078032;28;20025;-62
2021/12/27 12:00:17;;;;;;;6.10;4.63;;;11.00;99.90;;;;;;5077898;28;20040;-63
2021/12/27 12:02:49;;;;;;;5.38;4.88;;;11.00;99.90;;;;;;5078042;28;20273;-62
2021/12/27 12:05:36;;;;;;;5.73;4.37;;;11.00;99.90;;;;;;5078159;28;20406;-62
2021/12/27 12:08:04;;;;;;;8.25;5.57;;;10.90;99.90;;;;;;5077431;28;20400;-62
2021/12/27 12:10:31;;;;;;;7.70;6.05;;;11.00;99.90;;;;;;5077987;28;20407;-63
2021/12/27 12:13:20;;;;;;;5.85;5.20;;;11.20;99.90;;;;;;5077989;28;20083;-62
2021/12/27 12:16:09;;;;;;;5.28;3.90;;;11.30;99.90;;;;;;5078324;28;20276;-63
2021/12/27 12:18:39;;;;;;;5.30;3.88;;;11.30;99.90;;;;;;5077522;28;20087;-63
2021/12/27 12:21:06;;;;;;;5.75;4.30;;;11.40;99.90;;;;;;5078041;28;20025;-62
2021/12/27 12:23:37;;;;;;;4.07;3.20;;;11.50;99.90;;;;;;5077438;28;20043;-63
2021/12/27 12:26:04;;;;;;;4.90;4.30;;;11.50;99.90;;;;;;5077802;28;20107;-63
2021/12/27 12:28:30;;;;;;;10.00;5.05;;;11.60;99.90;;;;;;5077442;28;20082;-62
2021/12/27 12:30:57;;;;;;;4.57;3.90;;;11.70;99.90;;;;;;5078200;28;20037;-63
2021/12/27 12:33:26;;;;;;;5.50;3.47;;;11.60;99.90;;;;;;5077378;28;20353;-62
2021/12/27 12:36:03;;;;;;;3.55;3.25;;;11.70;99.90;;;;;;5077175;28;20037;-62
2021/12/27 12:38:35;;;;;;;5.40;3.08;;;11.70;99.90;;;;;;5076770;28;20388;-63
2021/12/27 12:41:09;;;;;;;4.40;3.03;;;11.70;99.90;;;;;;5076603;28;20035;-62
2021/12/27 12:43:46;;;;;;;4.22;3.33;;;11.60;99.90;;;;;;5077255;28;20029;-61
2021/12/27 12:46:24;;;;;;;3.67;3.10;;;11.70;99.90;;;;;;5077206;28;20036;-62